createdAt,value
2023-06-29T00:01:34.760Z,100.00
2023-06-29T00:04:03.041Z,100.00
2023-06-29T00:06:30.095Z,100.00
2023-06-29T00:08:56.994Z,100.00
2023-06-29T00:11:23.999Z,100.00
2023-06-29T00:13:50.939Z,100.00
2023-06-29T00:16:18.504Z,100.00
2023-06-29T00:18:45.968Z,100.00
2023-06-29T00:21:12.876Z,100.00
2023-06-29T00:23:39.768Z,100.00
2023-06-29T00:26:06.730Z,100.00
2023-06-29T00:28:33.664Z,100.00
2023-06-29T00:31:01.094Z,100.00
2023-06-29T00:33:28.429Z,100.00
2023-06-29T00:35:56.818Z,100.00
2023-06-29T00:38:23.984Z,100.00
2023-06-29T00:40:51.101Z,100.00
2023-06-29T00:43:19.218Z,100.00
2023-06-29T00:45:46.118Z,100.00
2023-06-29T00:48:13.727Z,100.00
2023-06-29T00:50:41.916Z,100.00
2023-06-29T00:53:09.254Z,100.00
2023-06-29T00:55:37.953Z,100.00
2023-06-29T00:58:04.979Z,100.00
2023-06-29T01:00:32.049Z,100.00
2023-06-29T01:02:59.073Z,100.00
2023-06-29T01:05:26.206Z,100.00
2023-06-29T01:08:06.679Z,100.00
2023-06-29T01:10:34.998Z,100.00
2023-06-29T01:13:04.134Z,100.00
2023-06-29T01:15:31.568Z,100.00
2023-06-29T01:18:01.376Z,100.00
2023-06-29T01:20:32.389Z,100.00
2023-06-29T01:23:16.177Z,100.00
2023-06-29T01:25:44.299Z,100.00
2023-06-29T01:28:12.011Z,100.00
2023-06-29T01:30:41.092Z,100.00
2023-06-29T01:33:09.555Z,100.00
2023-06-29T01:35:36.739Z,100.00
2023-06-29T01:38:14.403Z,100.00
2023-06-29T01:40:45.146Z,100.00
2023-06-29T01:43:12.136Z,100.00
2023-06-29T01:45:41.760Z,100.00
2023-06-29T01:48:09.041Z,100.00
2023-06-29T01:50:36.567Z,100.00
2023-06-29T01:53:04.590Z,100.00
2023-06-29T01:55:31.583Z,100.00
2023-06-29T01:57:58.645Z,100.00
2023-06-29T02:00:25.824Z,100.00
2023-06-29T02:02:52.839Z,100.00
2023-06-29T02:05:20.672Z,100.00
2023-06-29T02:07:47.577Z,100.00
2023-06-29T02:10:14.633Z,100.00
2023-06-29T02:12:42.149Z,100.00
2023-06-29T02:15:11.089Z,100.00
2023-06-29T02:17:38.590Z,100.00
2023-06-29T02:20:10.451Z,100.00
2023-06-29T02:22:38.793Z,100.00
2023-06-29T02:25:06.351Z,100.00
2023-06-29T02:27:33.251Z,100.00
2023-06-29T02:30:00.261Z,100.00
2023-06-29T02:32:27.262Z,100.00
2023-06-29T02:34:54.423Z,100.00
2023-06-29T02:37:21.435Z,100.00
2023-06-29T02:39:48.407Z,100.00
2023-06-29T02:42:15.496Z,100.00
2023-06-29T02:44:42.552Z,100.00
2023-06-29T02:47:09.447Z,100.00
2023-06-29T02:49:36.671Z,100.00
2023-06-29T02:52:04.467Z,100.00
2023-06-29T02:54:31.625Z,100.00
2023-06-29T02:56:58.802Z,100.00
2023-06-29T02:59:28.194Z,100.00
2023-06-29T03:01:55.142Z,100.00
2023-06-29T03:04:22.176Z,100.00
2023-06-29T03:06:49.263Z,100.00
2023-06-29T03:09:16.343Z,100.00
2023-06-29T03:11:43.315Z,100.00
2023-06-29T03:14:10.215Z,100.00
2023-06-29T03:16:37.184Z,100.00
2023-06-29T03:19:04.255Z,100.00
2023-06-29T03:21:31.366Z,100.00
2023-06-29T03:23:58.358Z,100.00
2023-06-29T03:26:25.797Z,100.00
2023-06-29T03:28:53.105Z,100.00
2023-06-29T03:31:20.272Z,100.00
2023-06-29T03:33:47.472Z,100.00
2023-06-29T03:36:14.573Z,100.00
2023-06-29T03:38:41.515Z,100.00
2023-06-29T03:41:08.447Z,100.00
2023-06-29T03:43:35.347Z,100.00
2023-06-29T03:46:02.407Z,100.00
2023-06-29T03:48:29.465Z,100.00
2023-06-29T03:50:58.383Z,100.00
2023-06-29T03:53:25.433Z,100.00
2023-06-29T03:55:52.468Z,100.00
2023-06-29T03:58:19.633Z,100.00
2023-06-29T04:00:46.775Z,100.00
2023-06-29T04:03:13.801Z,100.00
2023-06-29T04:05:41.318Z,100.00
2023-06-29T04:08:08.552Z,100.00
2023-06-29T04:10:36.119Z,100.00
2023-06-29T04:13:03.107Z,100.00
2023-06-29T04:15:31.531Z,100.00
2023-06-29T04:17:58.681Z,100.00
2023-06-29T04:20:26.005Z,100.00
2023-06-29T04:22:53.052Z,100.00
2023-06-29T04:25:20.187Z,100.00
2023-06-29T04:27:47.377Z,100.00
2023-06-29T04:30:18.877Z,100.00
2023-06-29T04:32:46.891Z,100.00
2023-06-29T04:35:14.733Z,100.00
2023-06-29T04:37:42.810Z,100.00
2023-06-29T04:40:11.257Z,100.00
2023-06-29T04:42:49.160Z,100.00
2023-06-29T04:45:19.400Z,100.00
2023-06-29T04:47:52.763Z,100.00
2023-06-29T04:50:26.921Z,100.00
2023-06-29T04:52:55.317Z,100.00
2023-06-29T04:55:23.141Z,100.00
2023-06-29T04:57:50.099Z,100.00
2023-06-29T05:00:17.642Z,100.00
2023-06-29T05:02:45.116Z,100.00
2023-06-29T05:05:12.893Z,100.00
2023-06-29T05:07:40.261Z,100.00
2023-06-29T05:10:08.245Z,100.00
2023-06-29T05:12:35.475Z,100.00
2023-06-29T05:15:03.331Z,100.00
2023-06-29T05:17:31.079Z,100.00
2023-06-29T05:19:59.641Z,100.00
2023-06-29T05:22:27.310Z,100.00
2023-06-29T05:24:54.377Z,100.00
2023-06-29T05:27:21.421Z,100.00
2023-06-29T05:29:48.737Z,100.00
2023-06-29T05:32:15.681Z,100.00
2023-06-29T05:34:42.686Z,100.00
2023-06-29T05:37:09.683Z,100.00
2023-06-29T05:39:36.882Z,100.00
2023-06-29T05:42:04.903Z,100.00
2023-06-29T05:44:32.030Z,100.00
2023-06-29T05:46:59.990Z,100.00
2023-06-29T05:49:27.383Z,100.00
2023-06-29T05:51:54.430Z,100.00
2023-06-29T05:54:21.513Z,100.00
2023-06-29T05:56:48.721Z,100.00
2023-06-29T05:59:15.892Z,100.00
2023-06-29T06:01:43.483Z,100.00
2023-06-29T06:04:11.172Z,100.00
2023-06-29T06:06:38.437Z,100.00
2023-06-29T06:09:05.916Z,100.00
2023-06-29T06:11:33.737Z,100.00
2023-06-29T06:14:00.924Z,100.00
2023-06-29T06:16:30.853Z,100.00
2023-06-29T06:18:57.860Z,100.00
2023-06-29T06:21:27.999Z,100.00
2023-06-29T06:23:55.148Z,100.00
2023-06-29T06:26:22.214Z,100.00
2023-06-29T06:28:49.734Z,100.00
2023-06-29T06:31:28.557Z,100.00
2023-06-29T06:33:59.331Z,100.00
2023-06-29T06:36:27.946Z,100.00
2023-06-29T06:38:55.033Z,100.00
2023-06-29T06:41:22.129Z,100.00
2023-06-29T06:43:49.108Z,100.00
2023-06-29T06:46:16.306Z,100.00
2023-06-29T06:48:45.782Z,100.00
2023-06-29T06:51:12.883Z,100.00
2023-06-29T06:53:40.680Z,100.00
2023-06-29T06:56:07.989Z,100.00
2023-06-29T06:58:35.631Z,100.00
2023-06-29T07:01:02.873Z,100.00
2023-06-29T07:03:30.522Z,100.00
2023-06-29T07:05:59.685Z,100.00
2023-06-29T07:08:26.953Z,100.00
2023-06-29T07:10:55.560Z,100.00
2023-06-29T07:13:22.688Z,100.00
2023-06-29T07:15:49.939Z,100.00
2023-06-29T07:18:17.040Z,100.00
2023-06-29T07:25:45.474Z,98.56
2023-06-29T07:28:13.363Z,100.00
2023-06-29T07:30:40.355Z,100.00
2023-06-29T07:33:07.365Z,99.04
2023-06-29T07:35:34.467Z,98.16
2023-06-29T07:38:01.456Z,99.77
2023-06-29T07:40:29.976Z,100.00
2023-06-29T07:42:57.358Z,100.00
2023-06-29T07:45:24.384Z,100.00
2023-06-29T07:47:52.245Z,100.00
2023-06-29T07:50:20.101Z,93.49
2023-06-29T07:52:47.359Z,96.05
2023-06-29T07:55:14.711Z,92.54
2023-06-29T08:00:12.319Z,95.32
2023-06-29T08:02:48.226Z,90.79
2023-06-29T08:07:45.421Z,90.34
2023-06-29T08:10:12.880Z,95.26
2023-06-29T08:12:39.971Z,90.51
2023-06-29T08:15:07.737Z,88.70
2023-06-29T08:17:34.730Z,88.71
2023-06-29T08:20:01.806Z,88.96
2023-06-29T08:22:28.943Z,90.97
2023-06-29T08:24:55.980Z,85.16
2023-06-29T08:27:23.090Z,82.64
2023-06-29T08:29:51.417Z,84.38
2023-06-29T08:32:18.549Z,86.14
2023-06-29T08:34:45.564Z,86.88
2023-06-29T08:37:13.913Z,80.63
2023-06-29T08:39:41.920Z,80.58
2023-06-29T08:42:08.925Z,80.19
2023-06-29T08:44:36.156Z,79.35
2023-06-29T08:47:06.391Z,79.10
2023-06-29T08:49:36.832Z,79.26
2023-06-29T08:52:05.932Z,75.60
2023-06-29T08:54:33.757Z,75.84
2023-06-29T08:57:02.370Z,77.58
2023-06-29T08:59:30.141Z,77.65
2023-06-29T09:02:01.173Z,76.24
2023-06-29T09:04:28.732Z,81.26
2023-06-29T09:06:57.510Z,79.06
2023-06-29T09:09:25.001Z,76.00
2023-06-29T09:11:52.658Z,74.64
2023-06-29T09:14:20.086Z,73.29
2023-06-29T09:16:52.669Z,73.40
2023-06-29T09:19:20.970Z,75.99
2023-06-29T09:21:49.186Z,66.43
2023-06-29T09:24:17.476Z,68.82
2023-06-29T09:26:45.089Z,65.01
2023-06-29T09:29:12.011Z,67.10
2023-06-29T09:31:39.219Z,66.55
2023-06-29T09:34:20.133Z,60.10
2023-06-29T09:36:48.355Z,60.76
2023-06-29T09:39:16.200Z,56.96
2023-06-29T09:41:51.198Z,61.39
2023-06-29T09:44:23.640Z,62.42
2023-06-29T09:49:22.060Z,61.14
2023-06-29T09:51:49.743Z,60.78
2023-06-29T09:54:16.789Z,59.05
2023-06-29T09:56:43.910Z,54.84
2023-06-29T09:59:15.208Z,55.73
2023-06-29T10:01:42.449Z,57.40
2023-06-29T10:04:09.587Z,58.71
2023-06-29T10:06:51.321Z,57.71
2023-06-29T10:09:20.835Z,58.95
2023-06-29T10:11:52.807Z,58.78
2023-06-29T10:14:22.387Z,54.90
2023-06-29T10:16:54.080Z,56.31
2023-06-29T10:19:22.834Z,53.62
2023-06-29T10:21:55.469Z,52.40
2023-06-29T10:24:26.267Z,51.06
2023-06-29T10:26:54.092Z,47.49
2023-06-29T10:29:21.235Z,45.49
2023-06-29T10:31:57.799Z,46.66
2023-06-29T10:34:28.170Z,46.88
2023-06-29T10:37:00.104Z,46.98
2023-06-29T10:39:41.547Z,47.05
2023-06-29T10:43:00.850Z,46.80
2023-06-29T10:45:32.278Z,43.85
2023-06-29T10:48:05.672Z,45.42
2023-06-29T10:50:37.127Z,46.66
2023-06-29T10:53:05.570Z,45.02
2023-06-29T10:55:41.268Z,45.91
2023-06-29T10:58:15.203Z,42.70
2023-06-29T11:00:43.022Z,41.54
2023-06-29T11:03:11.881Z,40.93
2023-06-29T11:05:39.109Z,42.63
2023-06-29T11:08:10.621Z,39.85
2023-06-29T11:10:37.840Z,38.99
2023-06-29T11:13:10.725Z,38.70
2023-06-29T11:15:40.045Z,37.03
2023-06-29T11:18:09.141Z,36.40
2023-06-29T11:20:41.060Z,39.81
2023-06-29T11:23:08.961Z,39.44
2023-06-29T11:25:37.873Z,37.19
2023-06-29T11:28:05.363Z,34.77
2023-06-29T11:30:32.798Z,35.10
2023-06-29T11:33:02.544Z,33.22
2023-06-29T11:35:30.748Z,34.89
2023-06-29T11:38:02.194Z,35.99
2023-06-29T11:40:29.715Z,37.13
2023-06-29T11:42:57.097Z,36.84
2023-06-29T11:45:25.112Z,35.53
2023-06-29T11:47:55.584Z,35.18
2023-06-29T11:50:22.857Z,36.57
2023-06-29T11:52:50.777Z,36.44
2023-06-29T11:55:18.477Z,36.66
2023-06-29T11:57:51.557Z,34.46
2023-06-29T12:00:32.565Z,32.72
2023-06-29T12:03:08.341Z,32.58
2023-06-29T12:05:45.321Z,29.18
2023-06-29T12:08:12.718Z,32.00
2023-06-29T12:10:40.591Z,31.44
2023-06-29T12:13:11.069Z,30.49
2023-06-29T12:15:38.543Z,31.31
2023-06-29T12:18:13.621Z,33.13
2023-06-29T12:20:44.488Z,32.11
2023-06-29T12:23:16.673Z,32.13
2023-06-29T12:25:53.838Z,32.62
2023-06-29T12:28:21.010Z,31.97
2023-06-29T12:30:48.523Z,32.43
2023-06-29T12:33:16.177Z,30.89
2023-06-29T12:35:46.160Z,32.75
2023-06-29T12:38:13.464Z,30.33
2023-06-29T12:40:40.901Z,31.02
2023-06-29T12:43:08.339Z,30.12
2023-06-29T12:45:35.961Z,29.85
2023-06-29T12:48:05.136Z,28.57
2023-06-29T12:50:32.418Z,28.44
2023-06-29T12:52:59.581Z,27.53
2023-06-29T12:55:26.728Z,28.25
2023-06-29T12:57:54.013Z,28.88
2023-06-29T13:00:22.070Z,27.78
2023-06-29T13:02:49.392Z,27.73
2023-06-29T13:05:16.595Z,27.77
2023-06-29T13:07:44.469Z,29.27
2023-06-29T13:10:14.575Z,27.76
2023-06-29T13:12:43.166Z,28.42
2023-06-29T13:15:11.122Z,29.26
2023-06-29T13:17:38.280Z,29.20
2023-06-29T13:20:06.422Z,27.54
2023-06-29T13:22:35.401Z,27.49
2023-06-29T13:25:03.218Z,28.62
2023-06-29T13:27:30.568Z,28.74
2023-06-29T13:29:57.683Z,27.96
2023-06-29T13:32:25.275Z,27.11
2023-06-29T13:34:52.906Z,28.34
2023-06-29T13:37:19.963Z,27.26
2023-06-29T13:39:48.323Z,26.99
2023-06-29T13:42:17.646Z,27.28
2023-06-29T13:44:45.482Z,27.51
2023-06-29T13:47:18.963Z,27.86
2023-06-29T13:49:47.367Z,26.48
2023-06-29T13:52:14.446Z,27.14
2023-06-29T13:54:41.850Z,27.51
2023-06-29T13:57:08.931Z,25.85
2023-06-29T13:59:35.957Z,27.64
2023-06-29T14:02:03.488Z,27.11
2023-06-29T14:04:32.863Z,27.42
2023-06-29T14:06:59.865Z,26.39
2023-06-29T14:09:28.846Z,26.83
2023-06-29T14:12:00.054Z,26.79
2023-06-29T14:14:27.095Z,25.63
2023-06-29T14:16:54.089Z,24.80
2023-06-29T14:19:21.104Z,24.90
2023-06-29T14:21:48.140Z,24.96
2023-06-29T14:24:15.209Z,26.98
2023-06-29T14:26:42.232Z,26.27
2023-06-29T14:29:09.223Z,25.46
2023-06-29T14:31:37.321Z,25.90
2023-06-29T14:34:04.521Z,25.09
2023-06-29T14:36:31.705Z,24.68
2023-06-29T14:38:59.561Z,24.78
2023-06-29T14:41:26.539Z,25.30
2023-06-29T14:43:53.456Z,25.31
2023-06-29T14:46:20.490Z,26.05
2023-06-29T14:48:47.615Z,25.94
2023-06-29T14:51:14.745Z,26.82
2023-06-29T14:53:41.628Z,26.32
2023-06-29T14:56:10.933Z,26.96
2023-06-29T14:58:38.377Z,25.36
2023-06-29T15:01:05.736Z,26.32
2023-06-29T15:03:33.249Z,26.51
2023-06-29T15:06:00.518Z,26.50
2023-06-29T15:08:28.360Z,27.54
2023-06-29T15:10:55.650Z,27.74
2023-06-29T15:13:23.028Z,27.78
2023-06-29T15:15:50.396Z,27.14
2023-06-29T15:18:19.165Z,27.93
2023-06-29T15:20:46.981Z,26.95
2023-06-29T15:23:14.501Z,27.11
2023-06-29T15:25:42.745Z,29.08
2023-06-29T15:28:11.988Z,27.75
2023-06-29T15:30:52.084Z,27.67
2023-06-29T15:33:20.284Z,27.64
2023-06-29T15:35:47.814Z,28.59
2023-06-29T15:38:15.383Z,27.47
2023-06-29T15:40:42.872Z,27.72
2023-06-29T15:43:10.089Z,27.56
2023-06-29T15:45:37.200Z,27.60
2023-06-29T15:48:04.490Z,27.90
2023-06-29T15:50:31.474Z,28.42
2023-06-29T15:52:58.891Z,27.55
2023-06-29T15:55:26.042Z,26.82
2023-06-29T15:57:53.081Z,27.72
2023-06-29T16:00:20.441Z,26.76
2023-06-29T16:02:48.764Z,27.36
2023-06-29T16:05:16.165Z,26.82
2023-06-29T16:07:43.179Z,25.29
2023-06-29T16:10:10.898Z,27.27
2023-06-29T16:12:37.924Z,27.74
2023-06-29T16:15:05.671Z,27.29
2023-06-29T16:17:33.401Z,27.89
2023-06-29T16:20:00.600Z,27.67
2023-06-29T16:22:28.373Z,28.37
2023-06-29T16:24:55.569Z,28.33
2023-06-29T16:27:22.549Z,28.26
2023-06-29T16:29:49.529Z,29.11
2023-06-29T16:32:16.820Z,28.39
2023-06-29T16:34:44.001Z,28.22
2023-06-29T16:37:11.224Z,28.59
2023-06-29T16:39:38.580Z,27.10
2023-06-29T16:42:06.424Z,26.63
2023-06-29T16:44:36.621Z,27.38
2023-06-29T16:47:03.805Z,26.81
2023-06-29T16:49:31.077Z,25.92
2023-06-29T16:51:58.136Z,26.18
2023-06-29T16:54:25.474Z,25.74
2023-06-29T16:56:52.400Z,24.16
2023-06-29T16:59:19.328Z,25.16
2023-06-29T17:01:46.410Z,24.79
2023-06-29T17:04:13.785Z,24.25
2023-06-29T17:06:40.808Z,24.85
2023-06-29T17:09:07.941Z,25.18
2023-06-29T17:11:35.006Z,24.50
2023-06-29T17:14:02.723Z,25.45
2023-06-29T17:16:29.966Z,25.13
2023-06-29T17:18:57.096Z,26.08
2023-06-29T17:21:28.444Z,26.92
2023-06-29T17:23:55.780Z,27.83
2023-06-29T17:26:24.287Z,27.62
2023-06-29T17:28:51.325Z,28.33
2023-06-29T17:31:18.522Z,29.18
2023-06-29T17:33:54.736Z,29.51
2023-06-29T17:36:23.719Z,30.41
2023-06-29T17:38:51.450Z,30.77
2023-06-29T17:41:18.718Z,30.71
2023-06-29T17:43:45.998Z,31.37
2023-06-29T17:46:14.227Z,32.21
2023-06-29T17:48:41.456Z,32.84
2023-06-29T17:51:18.940Z,33.46
2023-06-29T17:53:47.342Z,34.17
2023-06-29T17:56:15.839Z,35.40
2023-06-29T17:58:46.477Z,37.29
2023-06-29T18:01:14.282Z,38.22
2023-06-29T18:03:41.990Z,39.57
2023-06-29T18:06:09.447Z,41.45
2023-06-29T18:08:36.450Z,42.86
2023-06-29T18:11:04.141Z,44.27
2023-06-29T18:13:31.075Z,45.97
2023-06-29T18:15:58.059Z,47.25
2023-06-29T18:18:25.053Z,48.32
2023-06-29T18:20:51.980Z,49.13
2023-06-29T18:23:18.971Z,49.74
2023-06-29T18:25:46.459Z,50.81
2023-06-29T18:28:13.769Z,51.65
2023-06-29T18:30:40.766Z,52.03
2023-06-29T18:33:07.817Z,53.05
2023-06-29T18:35:34.794Z,53.11
2023-06-29T18:38:01.772Z,52.86
2023-06-29T18:40:29.349Z,54.09
2023-06-29T18:42:56.379Z,54.92
2023-06-29T18:45:26.022Z,56.67
2023-06-29T18:47:53.423Z,58.87
2023-06-29T18:50:20.612Z,59.73
2023-06-29T18:55:14.708Z,61.32
2023-06-29T18:57:41.782Z,61.83
2023-06-29T19:00:09.579Z,62.35
2023-06-29T19:02:36.662Z,62.63
2023-06-29T19:05:06.209Z,62.84
2023-06-29T19:07:33.227Z,63.09
2023-06-29T19:10:00.279Z,64.18
2023-06-29T19:12:27.355Z,64.65
2023-06-29T19:14:54.518Z,64.97
2023-06-29T19:17:21.893Z,65.12
2023-06-29T19:19:49.195Z,65.07
2023-06-29T19:22:16.430Z,65.46
2023-06-29T19:24:43.340Z,65.90
2023-06-29T19:27:10.449Z,65.98
2023-06-29T19:29:37.414Z,65.54
2023-06-29T19:32:06.174Z,65.47
2023-06-29T19:34:34.857Z,66.38
2023-06-29T19:37:04.214Z,66.82
2023-06-29T19:39:31.388Z,67.17
2023-06-29T19:41:58.441Z,67.95
2023-06-29T19:44:25.612Z,68.79
2023-06-29T19:46:52.828Z,69.40
2023-06-29T19:49:20.248Z,70.07
2023-06-29T19:51:47.259Z,71.08
2023-06-29T19:54:14.256Z,71.68
2023-06-29T19:56:41.367Z,71.66
2023-06-29T19:59:08.607Z,71.21
2023-06-29T20:01:35.630Z,71.13
2023-06-29T20:04:02.837Z,71.34
2023-06-29T20:06:31.284Z,71.50
2023-06-29T20:08:58.311Z,71.76
2023-06-29T20:11:25.632Z,72.50
2023-06-29T20:13:52.650Z,74.02
2023-06-29T20:16:19.809Z,75.07
2023-06-29T20:18:46.930Z,75.52
2023-06-29T20:21:15.072Z,75.95
2023-06-29T20:23:42.090Z,76.42
2023-06-29T20:26:09.167Z,76.42
2023-06-29T20:28:36.106Z,76.36
2023-06-29T20:31:03.190Z,76.59
2023-06-29T20:33:30.258Z,76.91
2023-06-29T20:35:57.258Z,76.91
2023-06-29T20:38:24.201Z,77.59
2023-06-29T20:40:51.190Z,78.43
2023-06-29T20:43:18.246Z,78.44
2023-06-29T20:45:49.564Z,78.44
2023-06-29T20:48:17.115Z,77.78
2023-06-29T20:50:44.263Z,77.98
2023-06-29T20:53:11.568Z,78.09
2023-06-29T20:55:38.541Z,78.47
2023-06-29T20:58:05.693Z,79.05
2023-06-29T21:00:35.264Z,79.97
2023-06-29T21:03:02.282Z,80.92
2023-06-29T21:05:29.277Z,81.92
2023-06-29T21:07:56.347Z,82.59
2023-06-29T21:10:23.495Z,82.63
2023-06-29T21:12:50.930Z,82.64
2023-06-29T21:15:18.241Z,82.36
2023-06-29T21:17:45.380Z,82.59
2023-06-29T21:20:13.186Z,83.20
2023-06-29T21:22:40.675Z,83.19
2023-06-29T21:25:08.857Z,83.46
2023-06-29T21:27:36.757Z,84.22
2023-06-29T21:30:04.349Z,84.72
2023-06-29T21:32:31.615Z,85.17
2023-06-29T21:34:58.923Z,84.91
2023-06-29T21:37:26.057Z,85.01
2023-06-29T21:39:52.978Z,86.14
2023-06-29T21:42:20.025Z,87.43
2023-06-29T21:44:47.348Z,87.47
2023-06-29T21:47:14.469Z,88.04
2023-06-29T21:49:41.648Z,88.76
2023-06-29T21:52:08.965Z,88.95
2023-06-29T21:54:35.936Z,89.95
2023-06-29T21:57:03.116Z,90.23
2023-06-29T21:59:33.339Z,89.97
2023-06-29T22:02:01.546Z,89.85
2023-06-29T22:04:30.352Z,89.34
2023-06-29T22:07:06.490Z,89.24
2023-06-29T22:09:42.354Z,89.21
2023-06-29T22:12:13.025Z,89.27
2023-06-29T22:14:40.267Z,89.14
2023-06-29T22:17:08.204Z,89.78
2023-06-29T22:19:38.157Z,89.34
2023-06-29T22:22:07.908Z,89.48
2023-06-29T22:24:34.810Z,88.22
2023-06-29T22:27:01.770Z,88.41
2023-06-29T22:29:28.748Z,88.33
2023-06-29T22:31:55.743Z,88.49
2023-06-29T22:34:22.691Z,88.68
2023-06-29T22:36:49.656Z,88.81
2023-06-29T22:39:16.661Z,89.58
2023-06-29T22:41:43.617Z,89.65
2023-06-29T22:44:10.545Z,89.84
2023-06-29T22:46:37.686Z,89.73
2023-06-29T22:49:04.625Z,90.23
2023-06-29T22:51:31.696Z,90.59
2023-06-29T22:53:59.328Z,91.06
2023-06-29T22:56:26.341Z,91.66
2023-06-29T22:59:14.543Z,92.61
2023-06-29T23:01:42.219Z,93.03
2023-06-29T23:04:09.696Z,92.73
2023-06-29T23:06:40.837Z,92.60
2023-06-29T23:09:11.556Z,92.20
2023-06-29T23:11:39.481Z,92.13
2023-06-29T23:14:07.293Z,92.04
2023-06-29T23:16:34.351Z,92.17
2023-06-29T23:19:01.761Z,92.74
2023-06-29T23:21:29.280Z,92.95
2023-06-29T23:23:56.651Z,94.04
2023-06-29T23:26:24.313Z,94.25
2023-06-29T23:28:54.739Z,94.04
2023-06-29T23:31:22.692Z,93.53
2023-06-29T23:33:50.528Z,94.46
2023-06-29T23:36:27.222Z,96.11
2023-06-29T23:38:58.620Z,96.97
2023-06-29T23:41:31.572Z,96.61
2023-06-29T23:44:07.740Z,96.01
2023-06-29T23:46:45.936Z,95.93
2023-06-29T23:49:18.326Z,95.70
2023-06-29T23:51:46.003Z,95.45
2023-06-29T23:54:13.185Z,95.54
2023-06-29T23:56:41.419Z,95.51
2023-06-29T23:59:10.448Z,94.58
